createdAt,value
2023-12-18T00:00:37.726Z,64.40
2023-12-18T00:03:07.329Z,64.30
2023-12-18T00:05:38.658Z,64.20
2023-12-18T00:08:09.770Z,63.80
2023-12-18T00:10:38.737Z,63.60
2023-12-18T00:13:08.087Z,63.60
2023-12-18T00:15:37.888Z,63.60
2023-12-18T00:18:07.301Z,63.50
2023-12-18T00:20:35.608Z,63.60
2023-12-18T00:23:04.144Z,63.60
2023-12-18T00:25:32.268Z,63.50
2023-12-18T00:28:00.752Z,63.50
2023-12-18T00:30:29.145Z,63.60
2023-12-18T00:32:59.354Z,63.60
2023-12-18T00:35:28.239Z,63.60
2023-12-18T00:37:56.418Z,63.60
2023-12-18T00:40:26.809Z,63.60
2023-12-18T00:42:55.228Z,63.70
2023-12-18T00:45:23.554Z,63.40
2023-12-18T00:47:52.831Z,63.30
2023-12-18T00:50:23.310Z,63.30
2023-12-18T00:52:51.917Z,63.30
2023-12-18T00:55:20.393Z,63.30
2023-12-18T00:57:53.478Z,63.30
2023-12-18T01:00:22.617Z,63.30
2023-12-18T01:02:50.982Z,63.00
2023-12-18T01:05:19.577Z,62.40
2023-12-18T01:07:49.615Z,62.40
2023-12-18T01:10:18.562Z,62.40
2023-12-18T01:12:50.014Z,62.50
2023-12-18T01:15:19.099Z,61.30
2023-12-18T01:17:47.710Z,61.30
2023-12-18T01:20:16.653Z,61.40
2023-12-18T01:22:46.990Z,61.40
2023-12-18T01:25:22.393Z,61.20
2023-12-18T01:27:51.868Z,61.30
2023-12-18T01:30:20.617Z,61.30
2023-12-18T01:32:49.167Z,61.40
2023-12-18T01:35:17.963Z,61.40
2023-12-18T01:37:47.810Z,61.40
2023-12-18T01:40:16.616Z,61.40
2023-12-18T01:42:47.786Z,61.40
2023-12-18T01:45:16.290Z,61.40
2023-12-18T01:47:44.906Z,61.20
2023-12-18T01:50:14.969Z,61.20
2023-12-18T01:52:43.810Z,61.20
2023-12-18T01:55:14.129Z,61.10
2023-12-18T01:57:43.335Z,61.00
2023-12-18T02:00:15.666Z,61.00
2023-12-18T02:02:46.069Z,61.10
2023-12-18T02:05:16.838Z,61.10
2023-12-18T02:07:45.228Z,61.10
2023-12-18T02:10:13.958Z,61.10
2023-12-18T02:12:42.179Z,61.10
2023-12-18T02:15:12.866Z,61.10
2023-12-18T02:17:41.295Z,61.20
2023-12-18T02:20:11.512Z,61.20
2023-12-18T02:22:52.926Z,60.80
2023-12-18T02:25:21.699Z,60.90
2023-12-18T02:27:51.249Z,61.00
2023-12-18T02:30:24.800Z,61.10
2023-12-18T02:32:53.650Z,59.70
2023-12-18T02:35:22.087Z,59.70
2023-12-18T02:37:51.566Z,59.70
2023-12-18T02:40:20.478Z,59.60
2023-12-18T02:42:49.192Z,59.70
2023-12-18T02:45:17.386Z,59.70
2023-12-18T02:47:46.649Z,59.70
2023-12-18T02:50:16.084Z,59.80
2023-12-18T02:52:44.786Z,59.70
2023-12-18T02:55:15.217Z,59.50
2023-12-18T02:57:43.960Z,59.50
2023-12-18T03:00:12.953Z,59.40
2023-12-18T03:02:42.503Z,59.40
2023-12-18T03:05:11.090Z,59.40
2023-12-18T03:07:40.718Z,59.30
2023-12-18T03:10:10.322Z,59.20
2023-12-18T03:12:40.026Z,59.10
2023-12-18T03:15:10.605Z,59.10
2023-12-18T03:17:38.730Z,59.10
2023-12-18T03:20:09.125Z,59.00
2023-12-18T03:22:37.349Z,59.00
2023-12-18T03:25:06.293Z,59.00
2023-12-18T03:27:34.686Z,59.00
2023-12-18T03:30:05.323Z,59.00
2023-12-18T03:32:33.685Z,59.00
2023-12-18T03:35:02.083Z,58.80
2023-12-18T03:37:30.636Z,58.80
2023-12-18T03:40:00.587Z,58.80
2023-12-18T03:42:29.226Z,58.80
2023-12-18T03:44:57.880Z,58.70
2023-12-18T03:47:28.153Z,58.70
2023-12-18T03:49:56.419Z,58.70
2023-12-18T03:52:25.846Z,58.70
2023-12-18T03:54:55.502Z,58.60
2023-12-18T03:57:25.852Z,58.50
2023-12-18T03:59:54.351Z,58.50
2023-12-18T04:02:22.626Z,58.10
2023-12-18T04:04:53.997Z,58.10
2023-12-18T04:07:22.672Z,58.10
2023-12-18T04:09:50.943Z,58.30
2023-12-18T04:12:19.226Z,58.70
2023-12-18T04:14:47.834Z,58.70
2023-12-18T04:17:16.245Z,58.80
2023-12-18T04:19:44.982Z,58.60
2023-12-18T04:22:15.062Z,58.50
2023-12-18T04:24:43.772Z,58.50
2023-12-18T04:27:12.489Z,58.50
2023-12-18T04:29:41.289Z,58.50
2023-12-18T04:32:09.646Z,58.30
2023-12-18T04:34:38.070Z,58.30
2023-12-18T04:37:09.641Z,58.30
2023-12-18T04:39:41.161Z,56.90
2023-12-18T04:42:10.076Z,56.90
2023-12-18T04:44:38.646Z,57.10
2023-12-18T04:47:07.212Z,57.00
2023-12-18T04:49:35.680Z,57.10
2023-12-18T04:52:04.116Z,57.10
2023-12-18T04:54:33.381Z,57.10
2023-12-18T04:57:03.652Z,57.10
2023-12-18T04:59:31.855Z,57.10
2023-12-18T05:02:00.307Z,57.20
2023-12-18T05:04:30.187Z,57.20
2023-12-18T05:07:00.078Z,56.80
2023-12-18T05:09:28.680Z,56.80
2023-12-18T05:11:57.025Z,56.80
2023-12-18T05:14:27.189Z,55.90
2023-12-18T05:16:55.520Z,55.90
2023-12-18T05:19:24.069Z,55.80
2023-12-18T05:21:52.964Z,55.70
2023-12-18T05:24:21.575Z,55.80
2023-12-18T05:26:49.992Z,56.20
2023-12-18T05:29:18.584Z,56.20
2023-12-18T05:31:48.798Z,56.30
2023-12-18T05:34:17.116Z,56.30
2023-12-18T05:36:45.765Z,56.40
2023-12-18T05:39:14.610Z,56.40
2023-12-18T05:41:44.543Z,56.40
2023-12-18T05:44:13.084Z,56.10
2023-12-18T05:46:41.782Z,56.20
2023-12-18T05:49:12.141Z,56.20
2023-12-18T05:51:40.949Z,56.20
2023-12-18T05:54:09.315Z,55.40
2023-12-18T05:56:37.978Z,55.40
2023-12-18T05:59:06.432Z,55.50
2023-12-18T06:01:34.954Z,55.50
2023-12-18T06:04:03.736Z,55.50
2023-12-18T06:06:34.619Z,55.50
2023-12-18T06:09:04.017Z,55.50
2023-12-18T06:11:35.506Z,55.40
2023-12-18T06:14:04.076Z,55.20
2023-12-18T06:16:32.396Z,55.20
2023-12-18T06:19:01.326Z,55.10
2023-12-18T06:21:30.726Z,55.10
2023-12-18T06:24:02.390Z,55.10
2023-12-18T06:26:31.981Z,54.40
2023-12-18T06:29:00.060Z,54.40
2023-12-18T06:31:28.754Z,54.40
2023-12-18T06:33:57.435Z,54.40
2023-12-18T06:36:25.681Z,54.40
2023-12-18T06:38:53.908Z,54.30
2023-12-18T06:41:23.984Z,54.30
2023-12-18T06:43:52.555Z,54.30
2023-12-18T06:46:20.769Z,54.40
2023-12-18T06:48:49.352Z,54.40
2023-12-18T06:51:18.260Z,54.40
2023-12-18T06:53:47.224Z,54.60
2023-12-18T06:56:15.412Z,54.50
2023-12-18T06:58:45.320Z,54.70
2023-12-18T07:01:16.022Z,54.70
2023-12-18T07:03:44.421Z,54.20
2023-12-18T07:06:12.978Z,54.20
2023-12-18T07:08:42.009Z,54.20
2023-12-18T07:11:11.468Z,54.20
2023-12-18T07:13:40.022Z,54.20
2023-12-18T07:16:11.131Z,54.00
2023-12-18T07:18:43.997Z,53.90
2023-12-18T07:21:12.524Z,53.90
2023-12-18T07:23:42.896Z,53.90
2023-12-18T07:26:13.933Z,53.90
2023-12-18T07:28:42.669Z,53.70
2023-12-18T07:31:12.572Z,53.70
2023-12-18T07:33:41.307Z,53.70
2023-12-18T07:36:10.459Z,53.70
2023-12-18T07:38:38.844Z,53.80
2023-12-18T07:41:07.352Z,53.80
2023-12-18T07:43:35.645Z,53.80
2023-12-18T07:46:03.894Z,53.80
2023-12-18T07:48:34.901Z,53.80
2023-12-18T07:51:05.169Z,53.80
2023-12-18T07:53:34.097Z,53.90
2023-12-18T07:56:03.871Z,53.90
2023-12-18T07:58:32.432Z,53.80
2023-12-18T08:01:02.376Z,53.80
2023-12-18T08:03:30.712Z,53.90
2023-12-18T08:06:01.074Z,53.80
2023-12-18T08:08:30.110Z,53.80
2023-12-18T08:10:59.026Z,53.10
2023-12-18T08:13:28.836Z,53.20
2023-12-18T08:15:57.227Z,53.10
2023-12-18T08:18:25.804Z,53.10
2023-12-18T08:20:54.701Z,53.00
2023-12-18T08:23:24.964Z,53.00
2023-12-18T08:25:53.043Z,53.00
2023-12-18T08:28:21.481Z,53.10
2023-12-18T08:30:50.085Z,53.10
2023-12-18T08:33:19.856Z,53.00
2023-12-18T08:35:50.859Z,53.00
2023-12-18T08:38:19.191Z,52.90
2023-12-18T08:40:49.575Z,52.80
2023-12-18T08:43:18.493Z,52.70
2023-12-18T08:45:47.260Z,52.80
2023-12-18T08:48:17.139Z,52.80
2023-12-18T08:50:46.693Z,52.80
2023-12-18T08:53:15.741Z,52.80
2023-12-18T08:55:44.592Z,52.80
2023-12-18T08:58:14.958Z,52.60
2023-12-18T09:00:43.826Z,52.60
2023-12-18T09:03:12.542Z,52.80
2023-12-18T09:05:43.394Z,52.80
2023-12-18T09:08:15.208Z,52.80
2023-12-18T09:10:44.186Z,52.60
2023-12-18T09:13:14.151Z,52.80
2023-12-18T09:15:43.297Z,52.70
2023-12-18T09:18:12.007Z,52.70
2023-12-18T09:20:42.006Z,52.70
2023-12-18T09:23:10.627Z,52.80
2023-12-18T09:25:39.058Z,52.80
2023-12-18T09:28:07.942Z,52.70
2023-12-18T09:30:37.975Z,52.70
2023-12-18T09:33:07.131Z,52.70
2023-12-18T09:35:35.438Z,52.60
2023-12-18T09:38:04.239Z,52.60
2023-12-18T09:40:32.601Z,52.60
2023-12-18T09:43:02.779Z,52.20
2023-12-18T09:45:33.143Z,52.30
2023-12-18T09:48:03.002Z,52.30
2023-12-18T09:50:32.571Z,52.20
2023-12-18T09:53:05.677Z,52.20
2023-12-18T09:55:34.778Z,52.20
2023-12-18T09:58:04.244Z,52.30
2023-12-18T10:00:32.715Z,52.30
2023-12-18T10:03:04.342Z,52.40
2023-12-18T10:05:33.120Z,52.60
2023-12-18T10:08:02.999Z,52.60
2023-12-18T10:10:31.920Z,52.70
2023-12-18T10:13:04.553Z,52.60
2023-12-18T10:15:34.970Z,52.70
2023-12-18T10:18:05.537Z,52.80
2023-12-18T10:20:35.478Z,52.90
2023-12-18T10:23:04.632Z,52.80
2023-12-18T10:25:33.316Z,52.80
2023-12-18T10:28:02.095Z,52.80
2023-12-18T10:30:31.360Z,52.80
2023-12-18T10:33:02.039Z,52.90
2023-12-18T10:35:34.895Z,53.00
2023-12-18T10:38:04.425Z,53.70
2023-12-18T10:40:32.742Z,53.60
2023-12-18T10:43:13.495Z,53.60
2023-12-18T10:45:42.194Z,53.60
2023-12-18T10:48:11.861Z,53.70
2023-12-18T10:50:43.385Z,53.90
2023-12-18T10:53:15.186Z,53.90
2023-12-18T10:55:44.990Z,53.80
2023-12-18T10:58:15.113Z,54.00
2023-12-18T11:00:45.936Z,54.20
2023-12-18T11:03:15.455Z,54.40
2023-12-18T11:05:48.075Z,54.50
2023-12-18T11:08:16.426Z,54.80
2023-12-18T11:10:45.436Z,54.80
2023-12-18T11:13:22.552Z,55.10
2023-12-18T11:16:08.046Z,55.30
2023-12-18T11:18:50.094Z,55.90
2023-12-18T11:21:21.230Z,56.60
2023-12-18T11:24:01.454Z,56.10
2023-12-18T11:26:39.463Z,55.70
2023-12-18T11:29:35.459Z,55.80
2023-12-18T11:32:05.465Z,55.60
2023-12-18T11:34:34.804Z,55.40
2023-12-18T11:37:08.078Z,55.20
2023-12-18T11:39:42.024Z,55.20
2023-12-18T11:42:12.496Z,56.30
2023-12-18T11:44:41.739Z,56.20
2023-12-18T11:47:10.079Z,56.30
2023-12-18T11:49:39.020Z,56.50
2023-12-18T11:52:22.636Z,56.70
2023-12-18T11:54:50.998Z,56.60
2023-12-18T11:57:23.315Z,58.50
2023-12-18T11:59:52.450Z,57.90
2023-12-18T12:02:23.300Z,58.00
2023-12-18T12:04:53.621Z,58.60
2023-12-18T12:07:24.996Z,58.70
2023-12-18T12:10:03.892Z,58.70
2023-12-18T12:12:34.718Z,60.10
2023-12-18T12:15:03.471Z,61.10
2023-12-18T12:17:32.705Z,59.50
2023-12-18T12:20:01.353Z,59.60
2023-12-18T12:22:31.204Z,59.80
2023-12-18T12:24:59.774Z,61.70
2023-12-18T12:27:30.987Z,60.50
2023-12-18T12:29:59.976Z,60.50
2023-12-18T12:32:28.810Z,63.40
2023-12-18T12:34:58.655Z,62.00
2023-12-18T12:37:27.291Z,62.60
2023-12-18T12:40:00.637Z,61.90
2023-12-18T12:42:30.449Z,61.20
2023-12-18T12:45:00.198Z,60.90
2023-12-18T12:47:29.003Z,60.10
2023-12-18T12:50:03.724Z,60.70
2023-12-18T12:52:33.215Z,61.50
2023-12-18T12:55:02.766Z,62.00
2023-12-18T12:57:31.250Z,63.80
2023-12-18T13:00:01.161Z,63.30
2023-12-18T13:02:30.039Z,63.50
2023-12-18T13:04:59.184Z,62.30
2023-12-18T13:07:28.359Z,62.10
2023-12-18T13:09:57.746Z,62.40
2023-12-18T13:12:27.182Z,61.60
2023-12-18T13:14:55.376Z,62.30
2023-12-18T13:17:24.253Z,62.00
2023-12-18T13:19:52.801Z,62.60
2023-12-18T13:22:21.463Z,61.00
2023-12-18T13:24:50.011Z,60.70
2023-12-18T13:27:19.324Z,61.40
2023-12-18T13:29:49.737Z,62.70
2023-12-18T13:32:18.551Z,62.20
2023-12-18T13:34:46.959Z,61.30
2023-12-18T13:37:15.981Z,60.70
2023-12-18T13:39:44.701Z,60.60
2023-12-18T13:42:16.393Z,61.30
2023-12-18T13:44:44.894Z,61.30
2023-12-18T13:47:15.533Z,62.00
2023-12-18T13:49:46.424Z,62.20
2023-12-18T13:52:15.842Z,62.70
2023-12-18T13:54:46.660Z,63.50
2023-12-18T13:57:15.190Z,64.40
2023-12-18T13:59:44.735Z,62.90
2023-12-18T14:02:15.174Z,63.50
2023-12-18T14:04:44.690Z,66.00
2023-12-18T14:07:13.020Z,67.10
2023-12-18T14:09:42.224Z,66.90
2023-12-18T14:12:13.334Z,65.60
2023-12-18T14:14:42.115Z,64.80
2023-12-18T14:17:14.050Z,64.10
2023-12-18T14:19:42.342Z,63.70
2023-12-18T14:22:10.841Z,63.10
2023-12-18T14:24:40.318Z,62.80
2023-12-18T14:27:10.546Z,62.80
2023-12-18T14:29:38.983Z,62.30
2023-12-18T14:32:08.081Z,62.90
2023-12-18T14:34:38.638Z,63.40
2023-12-18T14:37:09.595Z,63.40
2023-12-18T14:39:38.001Z,63.30
2023-12-18T14:42:07.291Z,62.60
2023-12-18T14:44:36.228Z,62.80
2023-12-18T14:47:04.929Z,62.20
2023-12-18T14:49:33.987Z,62.30
2023-12-18T14:52:03.988Z,62.00
2023-12-18T14:54:33.198Z,61.40
2023-12-18T14:57:02.044Z,61.50
2023-12-18T14:59:32.220Z,60.70
2023-12-18T15:02:02.785Z,60.30
2023-12-18T15:04:31.411Z,60.10
2023-12-18T15:07:00.553Z,59.70
2023-12-18T15:09:30.684Z,60.00
2023-12-18T15:12:01.281Z,60.40
2023-12-18T15:14:29.794Z,60.30
2023-12-18T15:17:04.623Z,60.40
2023-12-18T15:19:34.614Z,60.20
2023-12-18T15:22:05.712Z,60.20
2023-12-18T15:24:39.794Z,60.80
2023-12-18T15:27:08.773Z,61.40
2023-12-18T15:29:38.232Z,60.80
2023-12-18T15:32:08.311Z,60.70
2023-12-18T15:34:36.948Z,60.30
2023-12-18T15:37:05.842Z,60.20
2023-12-18T15:39:35.669Z,60.10
2023-12-18T15:42:07.131Z,59.90
2023-12-18T15:44:39.159Z,60.00
2023-12-18T15:47:08.617Z,60.00
2023-12-18T15:49:37.190Z,60.00
2023-12-18T15:52:06.111Z,59.90
2023-12-18T15:54:36.683Z,60.20
2023-12-18T15:57:05.564Z,60.20
2023-12-18T15:59:33.669Z,61.10
2023-12-18T16:02:02.127Z,61.30
2023-12-18T16:04:30.585Z,60.30
2023-12-18T16:07:00.620Z,59.20
2023-12-18T16:09:28.146Z,58.40
2023-12-18T16:11:57.680Z,57.70
2023-12-18T16:14:26.667Z,57.00
2023-12-18T16:16:56.489Z,57.00
2023-12-18T16:19:25.601Z,56.60
2023-12-18T16:21:53.878Z,56.60
2023-12-18T16:24:22.911Z,56.90
2023-12-18T16:26:52.551Z,57.00
2023-12-18T16:29:24.207Z,56.80
2023-12-18T16:31:53.868Z,56.40
2023-12-18T16:34:23.250Z,56.40
2023-12-18T16:36:52.269Z,56.50
2023-12-18T16:39:21.552Z,57.00
2023-12-18T16:41:50.604Z,57.10
2023-12-18T16:44:19.234Z,56.80
2023-12-18T16:46:50.972Z,57.00
2023-12-18T16:49:19.968Z,56.60
2023-12-18T16:51:49.129Z,56.60
2023-12-18T16:54:19.142Z,56.80
2023-12-18T16:56:48.044Z,57.00
2023-12-18T16:59:18.038Z,57.10
2023-12-18T17:01:49.183Z,57.30
2023-12-18T17:04:17.781Z,58.30
2023-12-18T17:06:46.673Z,58.50
2023-12-18T17:09:15.063Z,58.30
2023-12-18T17:11:44.644Z,57.60
2023-12-18T17:14:19.801Z,57.80
2023-12-18T17:16:50.247Z,57.60
2023-12-18T17:19:18.887Z,57.80
2023-12-18T17:21:48.985Z,57.70
2023-12-18T17:24:19.141Z,57.30
2023-12-18T17:26:48.268Z,57.30
2023-12-18T17:29:17.902Z,57.90
2023-12-18T17:31:47.242Z,58.00
2023-12-18T17:34:17.673Z,57.90
2023-12-18T17:36:47.802Z,57.70
2023-12-18T17:39:16.216Z,57.30
2023-12-18T17:41:45.035Z,57.20
2023-12-18T17:44:14.996Z,57.30
2023-12-18T17:46:45.100Z,57.50
2023-12-18T17:49:13.965Z,57.60
2023-12-18T17:51:45.843Z,57.70
2023-12-18T17:54:15.571Z,57.80
2023-12-18T17:56:46.704Z,57.90
2023-12-18T17:59:15.039Z,58.00
2023-12-18T18:02:01.832Z,58.30
2023-12-18T18:04:32.544Z,57.90
2023-12-18T18:07:03.795Z,57.80
2023-12-18T18:09:33.263Z,57.80
2023-12-18T18:12:01.930Z,57.80
2023-12-18T18:14:30.668Z,58.10
2023-12-18T18:17:00.197Z,58.40
2023-12-18T18:19:30.617Z,58.70
2023-12-18T18:22:02.326Z,59.20
2023-12-18T18:24:31.164Z,59.60
2023-12-18T18:27:08.768Z,59.40
2023-12-18T18:29:39.726Z,59.20
2023-12-18T18:32:10.874Z,58.50
2023-12-18T18:34:40.841Z,57.70
2023-12-18T18:37:11.520Z,57.40
2023-12-18T18:39:42.342Z,57.60
2023-12-18T18:42:11.555Z,57.30
2023-12-18T18:44:42.365Z,57.40
2023-12-18T18:47:11.667Z,57.50
2023-12-18T18:49:41.675Z,57.30
2023-12-18T18:52:14.232Z,57.10
2023-12-18T18:54:44.125Z,57.30
2023-12-18T18:57:14.109Z,57.00
2023-12-18T18:59:43.261Z,57.20
2023-12-18T19:02:13.485Z,57.20
2023-12-18T19:04:43.236Z,57.40
2023-12-18T19:07:15.387Z,57.40
2023-12-18T19:09:44.896Z,57.10
2023-12-18T19:12:14.975Z,57.00
2023-12-18T19:14:47.798Z,57.10
2023-12-18T19:17:16.591Z,56.90
2023-12-18T19:19:45.976Z,56.90
2023-12-18T19:22:18.685Z,56.90
2023-12-18T19:24:47.646Z,56.90
2023-12-18T19:27:16.657Z,57.10
2023-12-18T19:29:45.570Z,57.00
2023-12-18T19:32:14.626Z,56.80
2023-12-18T19:34:43.445Z,56.50
2023-12-18T19:37:12.624Z,56.40
2023-12-18T19:39:43.529Z,56.30
2023-12-18T19:42:11.928Z,56.40
2023-12-18T19:44:40.669Z,56.60
2023-12-18T19:47:09.229Z,56.60
2023-12-18T19:49:40.920Z,56.60
2023-12-18T19:52:10.390Z,56.40
2023-12-18T19:54:40.125Z,56.50
2023-12-18T19:57:10.555Z,56.50
2023-12-18T19:59:40.418Z,56.50
2023-12-18T20:02:10.617Z,56.30
2023-12-18T20:04:40.017Z,56.40
2023-12-18T20:07:15.250Z,56.60
2023-12-18T20:09:45.421Z,56.70
2023-12-18T20:12:19.783Z,56.50
2023-12-18T20:14:49.207Z,56.50
2023-12-18T20:17:18.465Z,56.60
2023-12-18T20:19:48.125Z,56.60
2023-12-18T20:22:16.884Z,56.60
2023-12-18T20:24:47.513Z,56.30
2023-12-18T20:27:18.131Z,56.30
2023-12-18T20:29:49.236Z,56.50
2023-12-18T20:32:17.661Z,56.70
2023-12-18T20:34:47.072Z,56.60
2023-12-18T20:37:16.446Z,56.90
2023-12-18T20:39:45.235Z,57.00
2023-12-18T20:42:14.724Z,56.90
2023-12-18T20:44:44.897Z,56.90
2023-12-18T20:47:13.956Z,56.80
2023-12-18T20:49:43.180Z,56.70
2023-12-18T20:52:11.654Z,56.50
2023-12-18T20:54:41.134Z,56.30
2023-12-18T20:57:10.297Z,56.30
2023-12-18T20:59:42.395Z,56.40
2023-12-18T21:02:13.160Z,56.30
2023-12-18T21:04:41.908Z,56.00
2023-12-18T21:07:10.835Z,55.80
2023-12-18T21:09:39.461Z,55.60
2023-12-18T21:12:09.083Z,55.60
2023-12-18T21:14:37.933Z,55.60
2023-12-18T21:17:06.963Z,55.80
2023-12-18T21:19:39.966Z,56.00
2023-12-18T21:22:09.430Z,56.10
2023-12-18T21:24:38.652Z,56.10
2023-12-18T21:27:08.961Z,56.10
2023-12-18T21:29:37.797Z,56.20
2023-12-18T21:32:07.706Z,56.20
2023-12-18T21:34:38.251Z,56.40
2023-12-18T21:37:07.078Z,56.20
2023-12-18T21:39:36.899Z,56.00
2023-12-18T21:42:06.733Z,56.20
2023-12-18T21:44:35.530Z,56.20
2023-12-18T21:47:06.125Z,56.30
2023-12-18T21:49:38.774Z,56.50
2023-12-18T21:52:10.798Z,56.50
2023-12-18T21:54:40.504Z,56.40
2023-12-18T21:57:11.533Z,56.30
2023-12-18T21:59:40.190Z,56.40
2023-12-18T22:02:09.861Z,56.50
2023-12-18T22:04:39.144Z,56.70
2023-12-18T22:07:09.842Z,56.60
2023-12-18T22:09:39.559Z,56.90
2023-12-18T22:12:09.034Z,56.80
2023-12-18T22:14:37.469Z,56.70
2023-12-18T22:17:06.536Z,56.70
2023-12-18T22:19:35.281Z,56.60
2023-12-18T22:22:06.834Z,56.40
2023-12-18T22:24:38.480Z,56.30
2023-12-18T22:27:07.937Z,56.90
2023-12-18T22:29:36.901Z,57.00
2023-12-18T22:32:06.343Z,57.10
2023-12-18T22:34:35.694Z,56.90
2023-12-18T22:37:05.320Z,56.90
2023-12-18T22:39:34.540Z,57.00
2023-12-18T22:42:05.376Z,57.20
2023-12-18T22:44:33.884Z,57.50
2023-12-18T22:47:04.392Z,57.70
2023-12-18T22:49:33.203Z,57.50
2023-12-18T22:52:02.286Z,57.10
2023-12-18T22:54:31.078Z,57.00
2023-12-18T22:56:59.638Z,56.70
2023-12-18T22:59:29.667Z,56.50
2023-12-18T23:01:58.564Z,56.40
2023-12-18T23:04:28.559Z,56.50
2023-12-18T23:06:57.599Z,56.30
2023-12-18T23:09:27.112Z,56.30
2023-12-18T23:11:55.894Z,56.30
2023-12-18T23:14:24.187Z,56.30
2023-12-18T23:16:54.906Z,56.10
2023-12-18T23:19:23.264Z,56.20
2023-12-18T23:21:52.417Z,56.30
2023-12-18T23:24:20.970Z,56.40
2023-12-18T23:26:49.954Z,56.40
2023-12-18T23:29:18.691Z,56.30
2023-12-18T23:31:47.945Z,56.20
2023-12-18T23:34:18.227Z,56.20
2023-12-18T23:36:46.458Z,56.20
2023-12-18T23:39:17.344Z,56.10
2023-12-18T23:41:46.345Z,56.10
2023-12-18T23:44:16.278Z,56.10
2023-12-18T23:46:44.647Z,56.00
2023-12-18T23:49:13.597Z,55.90
2023-12-18T23:51:43.980Z,55.90
2023-12-18T23:54:12.814Z,55.90
2023-12-18T23:56:41.433Z,56.00
2023-12-18T23:59:10.130Z,56.10
